sensor_id;sensor_type;location;lat;lon;timestamp;P1;durP1;ratioP1;P2;durP2;ratioP2
74371;SDS011;62885;51.374;6.170;2023-06-14T00:00:12;8.73;;;5.68;;
74371;SDS011;62885;51.374;6.170;2023-06-14T00:02:38;8.88;;;5.22;;
74371;SDS011;62885;51.374;6.170;2023-06-14T00:05:05;9.38;;;5.50;;
74371;SDS011;62885;51.374;6.170;2023-06-14T00:07:35;9.82;;;5.60;;
74371;SDS011;62885;51.374;6.170;2023-06-14T00:10:02;10.80;;;7.03;;
74371;SDS011;62885;51.374;6.170;2023-06-14T00:12:28;15.35;;;9.48;;
74371;SDS011;62885;51.374;6.170;2023-06-14T00:14:53;10.97;;;7.23;;
74371;SDS011;62885;51.374;6.170;2023-06-14T00:17:18;8.27;;;5.68;;
74371;SDS011;62885;51.374;6.170;2023-06-14T00:19:44;9.60;;;5.78;;
74371;SDS011;62885;51.374;6.170;2023-06-14T00:22:09;10.02;;;5.88;;
74371;SDS011;62885;51.374;6.170;2023-06-14T00:24:35;7.53;;;5.10;;
74371;SDS011;62885;51.374;6.170;2023-06-14T00:27:00;9.70;;;5.40;;
74371;SDS011;62885;51.374;6.170;2023-06-14T00:29:26;8.32;;;5.13;;
74371;SDS011;62885;51.374;6.170;2023-06-14T00:31:51;7.45;;;5.22;;
74371;SDS011;62885;51.374;6.170;2023-06-14T00:34:17;7.88;;;5.10;;
74371;SDS011;62885;51.374;6.170;2023-06-14T00:36:42;8.98;;;6.00;;
74371;SDS011;62885;51.374;6.170;2023-06-14T00:39:07;9.10;;;6.13;;
74371;SDS011;62885;51.374;6.170;2023-06-14T00:41:34;9.73;;;5.93;;
74371;SDS011;62885;51.374;6.170;2023-06-14T00:44:00;9.55;;;6.40;;
74371;SDS011;62885;51.374;6.170;2023-06-14T00:46:25;9.68;;;6.10;;
74371;SDS011;62885;51.374;6.170;2023-06-14T00:48:51;8.32;;;5.80;;
74371;SDS011;62885;51.374;6.170;2023-06-14T00:51:16;11.20;;;5.90;;
74371;SDS011;62885;51.374;6.170;2023-06-14T00:53:42;11.05;;;5.45;;
74371;SDS011;62885;51.374;6.170;2023-06-14T00:56:11;9.05;;;5.10;;
74371;SDS011;62885;51.374;6.170;2023-06-14T00:58:38;10.48;;;5.53;;
74371;SDS011;62885;51.374;6.170;2023-06-14T01:01:04;8.85;;;5.30;;
74371;SDS011;62885;51.374;6.170;2023-06-14T01:03:29;8.95;;;5.43;;
74371;SDS011;62885;51.374;6.170;2023-06-14T01:06:03;9.05;;;5.40;;
74371;SDS011;62885;51.374;6.170;2023-06-14T01:08:53;7.60;;;5.05;;
74371;SDS011;62885;51.374;6.170;2023-06-14T01:11:47;10.32;;;5.03;;
74371;SDS011;62885;51.374;6.170;2023-06-14T01:14:20;7.72;;;5.38;;
74371;SDS011;62885;51.374;6.170;2023-06-14T01:16:46;9.60;;;5.10;;
74371;SDS011;62885;51.374;6.170;2023-06-14T01:19:12;9.55;;;5.05;;
74371;SDS011;62885;51.374;6.170;2023-06-14T01:21:39;9.15;;;5.30;;
74371;SDS011;62885;51.374;6.170;2023-06-14T01:24:07;7.03;;;4.63;;
74371;SDS011;62885;51.374;6.170;2023-06-14T01:26:33;9.05;;;4.97;;
74371;SDS011;62885;51.374;6.170;2023-06-14T01:29:00;9.57;;;5.20;;
74371;SDS011;62885;51.374;6.170;2023-06-14T01:31:26;8.38;;;4.65;;
74371;SDS011;62885;51.374;6.170;2023-06-14T01:33:52;9.85;;;4.60;;
74371;SDS011;62885;51.374;6.170;2023-06-14T01:36:18;11.50;;;5.35;;
74371;SDS011;62885;51.374;6.170;2023-06-14T01:38:45;8.80;;;4.88;;
74371;SDS011;62885;51.374;6.170;2023-06-14T01:41:13;10.48;;;5.25;;
74371;SDS011;62885;51.374;6.170;2023-06-14T01:43:40;10.25;;;4.88;;
74371;SDS011;62885;51.374;6.170;2023-06-14T01:46:06;8.27;;;4.70;;
74371;SDS011;62885;51.374;6.170;2023-06-14T01:48:33;7.60;;;5.13;;
74371;SDS011;62885;51.374;6.170;2023-06-14T01:50:59;7.45;;;4.53;;
74371;SDS011;62885;51.374;6.170;2023-06-14T01:53:25;7.25;;;5.22;;
74371;SDS011;62885;51.374;6.170;2023-06-14T01:55:50;9.07;;;4.60;;
74371;SDS011;62885;51.374;6.170;2023-06-14T01:58:18;8.25;;;5.00;;
74371;SDS011;62885;51.374;6.170;2023-06-14T02:00:44;7.97;;;4.68;;
74371;SDS011;62885;51.374;6.170;2023-06-14T02:03:10;7.85;;;5.03;;
74371;SDS011;62885;51.374;6.170;2023-06-14T02:05:36;8.50;;;5.47;;
74371;SDS011;62885;51.374;6.170;2023-06-14T02:08:04;9.80;;;6.03;;
74371;SDS011;62885;51.374;6.170;2023-06-14T02:10:29;9.23;;;5.18;;
74371;SDS011;62885;51.374;6.170;2023-06-14T02:12:54;9.60;;;4.43;;
74371;SDS011;62885;51.374;6.170;2023-06-14T02:15:20;8.32;;;4.47;;
74371;SDS011;62885;51.374;6.170;2023-06-14T02:17:46;12.18;;;5.45;;
74371;SDS011;62885;51.374;6.170;2023-06-14T02:20:12;7.95;;;4.45;;
74371;SDS011;62885;51.374;6.170;2023-06-14T02:22:38;8.00;;;4.45;;
74371;SDS011;62885;51.374;6.170;2023-06-14T02:25:03;8.02;;;5.20;;
74371;SDS011;62885;51.374;6.170;2023-06-14T02:27:29;7.93;;;5.50;;
74371;SDS011;62885;51.374;6.170;2023-06-14T02:29:54;10.27;;;5.28;;
74371;SDS011;62885;51.374;6.170;2023-06-14T02:32:20;9.75;;;4.88;;
74371;SDS011;62885;51.374;6.170;2023-06-14T02:34:45;9.85;;;4.97;;
74371;SDS011;62885;51.374;6.170;2023-06-14T02:37:14;11.07;;;5.60;;
74371;SDS011;62885;51.374;6.170;2023-06-14T02:39:40;9.23;;;5.45;;
74371;SDS011;62885;51.374;6.170;2023-06-14T02:42:05;10.07;;;5.07;;
74371;SDS011;62885;51.374;6.170;2023-06-14T02:44:31;10.00;;;4.82;;
74371;SDS011;62885;51.374;6.170;2023-06-14T02:46:57;7.90;;;4.75;;
74371;SDS011;62885;51.374;6.170;2023-06-14T02:49:23;9.30;;;5.20;;
74371;SDS011;62885;51.374;6.170;2023-06-14T02:51:49;10.60;;;5.10;;
74371;SDS011;62885;51.374;6.170;2023-06-14T02:54:14;12.45;;;5.30;;
74371;SDS011;62885;51.374;6.170;2023-06-14T02:56:40;12.40;;;5.22;;
74371;SDS011;62885;51.374;6.170;2023-06-14T02:59:06;8.07;;;5.05;;
74371;SDS011;62885;51.374;6.170;2023-06-14T03:01:32;9.43;;;4.75;;
74371;SDS011;62885;51.374;6.170;2023-06-14T03:04:03;9.57;;;4.78;;
74371;SDS011;62885;51.374;6.170;2023-06-14T03:06:29;8.15;;;4.80;;
74371;SDS011;62885;51.374;6.170;2023-06-14T03:08:58;8.68;;;5.03;;
74371;SDS011;62885;51.374;6.170;2023-06-14T03:11:26;7.97;;;4.43;;
74371;SDS011;62885;51.374;6.170;2023-06-14T03:13:52;10.05;;;5.10;;
74371;SDS011;62885;51.374;6.170;2023-06-14T03:16:18;8.18;;;5.20;;
74371;SDS011;62885;51.374;6.170;2023-06-14T03:18:46;8.77;;;4.85;;
74371;SDS011;62885;51.374;6.170;2023-06-14T03:21:17;8.05;;;4.22;;
74371;SDS011;62885;51.374;6.170;2023-06-14T03:23:45;7.90;;;5.10;;
74371;SDS011;62885;51.374;6.170;2023-06-14T03:26:11;8.50;;;4.93;;
74371;SDS011;62885;51.374;6.170;2023-06-14T03:28:40;8.73;;;4.25;;
74371;SDS011;62885;51.374;6.170;2023-06-14T03:31:05;10.27;;;4.70;;
74371;SDS011;62885;51.374;6.170;2023-06-14T03:33:31;8.85;;;4.97;;
74371;SDS011;62885;51.374;6.170;2023-06-14T03:35:57;8.40;;;4.70;;
74371;SDS011;62885;51.374;6.170;2023-06-14T03:38:24;10.75;;;4.68;;
74371;SDS011;62885;51.374;6.170;2023-06-14T03:40:50;7.88;;;4.50;;
74371;SDS011;62885;51.374;6.170;2023-06-14T03:43:15;12.15;;;4.68;;
74371;SDS011;62885;51.374;6.170;2023-06-14T03:45:40;8.93;;;5.05;;
74371;SDS011;62885;51.374;6.170;2023-06-14T03:48:06;11.52;;;4.55;;
74371;SDS011;62885;51.374;6.170;2023-06-14T03:50:33;8.57;;;4.50;;
74371;SDS011;62885;51.374;6.170;2023-06-14T03:52:59;7.35;;;4.30;;
74371;SDS011;62885;51.374;6.170;2023-06-14T03:55:26;7.03;;;4.25;;
74371;SDS011;62885;51.374;6.170;2023-06-14T03:57:52;8.52;;;5.00;;
74371;SDS011;62885;51.374;6.170;2023-06-14T04:00:18;7.80;;;5.28;;
74371;SDS011;62885;51.374;6.170;2023-06-14T04:02:43;9.63;;;4.30;;
74371;SDS011;62885;51.374;6.170;2023-06-14T04:05:09;8.23;;;4.32;;
74371;SDS011;62885;51.374;6.170;2023-06-14T04:07:35;9.23;;;4.75;;
74371;SDS011;62885;51.374;6.170;2023-06-14T04:10:09;7.93;;;4.05;;
74371;SDS011;62885;51.374;6.170;2023-06-14T04:12:38;9.75;;;4.85;;
74371;SDS011;62885;51.374;6.170;2023-06-14T04:15:05;8.32;;;4.85;;
74371;SDS011;62885;51.374;6.170;2023-06-14T04:17:31;8.15;;;4.35;;
74371;SDS011;62885;51.374;6.170;2023-06-14T04:19:58;7.72;;;4.32;;
74371;SDS011;62885;51.374;6.170;2023-06-14T04:22:24;10.80;;;4.05;;
74371;SDS011;62885;51.374;6.170;2023-06-14T04:24:53;7.07;;;3.95;;
74371;SDS011;62885;51.374;6.170;2023-06-14T04:27:20;8.63;;;4.35;;
74371;SDS011;62885;51.374;6.170;2023-06-14T04:29:46;10.07;;;4.47;;
74371;SDS011;62885;51.374;6.170;2023-06-14T04:32:14;8.00;;;3.78;;
74371;SDS011;62885;51.374;6.170;2023-06-14T04:34:40;8.93;;;4.45;;
74371;SDS011;62885;51.374;6.170;2023-06-14T04:37:06;10.15;;;4.50;;
74371;SDS011;62885;51.374;6.170;2023-06-14T04:39:33;8.90;;;4.28;;
74371;SDS011;62885;51.374;6.170;2023-06-14T04:41:58;6.90;;;4.25;;
74371;SDS011;62885;51.374;6.170;2023-06-14T04:44:25;10.38;;;4.50;;
74371;SDS011;62885;51.374;6.170;2023-06-14T04:46:55;10.85;;;4.70;;
74371;SDS011;62885;51.374;6.170;2023-06-14T04:49:21;9.63;;;3.85;;
74371;SDS011;62885;51.374;6.170;2023-06-14T04:51:48;11.13;;;4.80;;
74371;SDS011;62885;51.374;6.170;2023-06-14T04:54:22;7.90;;;4.30;;
74371;SDS011;62885;51.374;6.170;2023-06-14T04:56:49;9.50;;;4.32;;
74371;SDS011;62885;51.374;6.170;2023-06-14T04:59:15;9.00;;;4.70;;
74371;SDS011;62885;51.374;6.170;2023-06-14T05:01:42;9.40;;;5.28;;
74371;SDS011;62885;51.374;6.170;2023-06-14T05:04:13;8.02;;;4.10;;
74371;SDS011;62885;51.374;6.170;2023-06-14T05:06:42;9.05;;;4.10;;
74371;SDS011;62885;51.374;6.170;2023-06-14T05:09:13;10.95;;;4.47;;
74371;SDS011;62885;51.374;6.170;2023-06-14T05:11:40;7.40;;;4.13;;
74371;SDS011;62885;51.374;6.170;2023-06-14T05:14:07;7.53;;;4.40;;
74371;SDS011;62885;51.374;6.170;2023-06-14T05:16:33;10.57;;;4.28;;
74371;SDS011;62885;51.374;6.170;2023-06-14T05:18:58;7.35;;;3.65;;
74371;SDS011;62885;51.374;6.170;2023-06-14T05:21:23;12.15;;;3.42;;
74371;SDS011;62885;51.374;6.170;2023-06-14T05:23:49;7.90;;;3.75;;
74371;SDS011;62885;51.374;6.170;2023-06-14T05:26:15;8.25;;;4.00;;
74371;SDS011;62885;51.374;6.170;2023-06-14T05:28:41;10.60;;;3.97;;
74371;SDS011;62885;51.374;6.170;2023-06-14T05:31:06;11.55;;;4.43;;
74371;SDS011;62885;51.374;6.170;2023-06-14T05:33:32;7.93;;;4.15;;
74371;SDS011;62885;51.374;6.170;2023-06-14T05:35:57;8.70;;;3.92;;
74371;SDS011;62885;51.374;6.170;2023-06-14T05:38:22;6.95;;;3.65;;
74371;SDS011;62885;51.374;6.170;2023-06-14T05:40:48;12.38;;;3.85;;
74371;SDS011;62885;51.374;6.170;2023-06-14T05:43:13;10.65;;;3.67;;
74371;SDS011;62885;51.374;6.170;2023-06-14T05:45:38;8.15;;;4.30;;
74371;SDS011;62885;51.374;6.170;2023-06-14T05:48:04;7.97;;;3.40;;
74371;SDS011;62885;51.374;6.170;2023-06-14T05:50:30;8.43;;;3.67;;
74371;SDS011;62885;51.374;6.170;2023-06-14T05:52:55;7.00;;;3.47;;
74371;SDS011;62885;51.374;6.170;2023-06-14T05:55:21;6.32;;;3.53;;
74371;SDS011;62885;51.374;6.170;2023-06-14T05:57:46;10.68;;;3.97;;
74371;SDS011;62885;51.374;6.170;2023-06-14T06:00:13;8.45;;;3.47;;
74371;SDS011;62885;51.374;6.170;2023-06-14T06:02:42;12.77;;;4.15;;
74371;SDS011;62885;51.374;6.170;2023-06-14T06:05:09;7.68;;;3.63;;
74371;SDS011;62885;51.374;6.170;2023-06-14T06:07:35;6.45;;;3.60;;
74371;SDS011;62885;51.374;6.170;2023-06-14T06:10:02;8.55;;;3.22;;
74371;SDS011;62885;51.374;6.170;2023-06-14T06:12:27;8.80;;;3.78;;
74371;SDS011;62885;51.374;6.170;2023-06-14T06:14:52;8.93;;;3.22;;
74371;SDS011;62885;51.374;6.170;2023-06-14T06:17:18;6.82;;;3.40;;
74371;SDS011;62885;51.374;6.170;2023-06-14T06:19:43;6.97;;;3.60;;
74371;SDS011;62885;51.374;6.170;2023-06-14T06:22:09;9.45;;;3.45;;
74371;SDS011;62885;51.374;6.170;2023-06-14T06:24:34;6.63;;;2.88;;
74371;SDS011;62885;51.374;6.170;2023-06-14T06:26:59;9.38;;;3.50;;
74371;SDS011;62885;51.374;6.170;2023-06-14T06:29:25;7.00;;;3.60;;
74371;SDS011;62885;51.374;6.170;2023-06-14T06:31:50;9.63;;;3.40;;
74371;SDS011;62885;51.374;6.170;2023-06-14T06:34:16;8.10;;;3.60;;
74371;SDS011;62885;51.374;6.170;2023-06-14T06:36:41;11.25;;;3.10;;
74371;SDS011;62885;51.374;6.170;2023-06-14T06:39:07;6.88;;;3.58;;
74371;SDS011;62885;51.374;6.170;2023-06-14T06:41:36;9.95;;;3.45;;
74371;SDS011;62885;51.374;6.170;2023-06-14T06:44:04;10.57;;;3.58;;
74371;SDS011;62885;51.374;6.170;2023-06-14T06:46:31;11.93;;;3.78;;
74371;SDS011;62885;51.374;6.170;2023-06-14T06:48:57;11.32;;;3.40;;
74371;SDS011;62885;51.374;6.170;2023-06-14T06:51:22;7.25;;;3.30;;
74371;SDS011;62885;51.374;6.170;2023-06-14T06:53:57;11.65;;;3.70;;
74371;SDS011;62885;51.374;6.170;2023-06-14T06:56:23;8.98;;;3.60;;
74371;SDS011;62885;51.374;6.170;2023-06-14T06:58:49;7.72;;;3.03;;
74371;SDS011;62885;51.374;6.170;2023-06-14T07:01:15;5.72;;;3.00;;
74371;SDS011;62885;51.374;6.170;2023-06-14T07:03:41;7.07;;;3.22;;
74371;SDS011;62885;51.374;6.170;2023-06-14T07:06:07;5.50;;;3.10;;
74371;SDS011;62885;51.374;6.170;2023-06-14T07:08:32;8.63;;;3.75;;
74371;SDS011;62885;51.374;6.170;2023-06-14T07:10:58;7.35;;;3.33;;
74371;SDS011;62885;51.374;6.170;2023-06-14T07:13:23;11.98;;;3.22;;
74371;SDS011;62885;51.374;6.170;2023-06-14T07:15:49;8.23;;;3.20;;
74371;SDS011;62885;51.374;6.170;2023-06-14T07:18:14;6.93;;;3.20;;
74371;SDS011;62885;51.374;6.170;2023-06-14T07:20:40;6.85;;;3.47;;
74371;SDS011;62885;51.374;6.170;2023-06-14T07:23:05;8.50;;;3.15;;
74371;SDS011;62885;51.374;6.170;2023-06-14T07:25:30;5.78;;;2.85;;
74371;SDS011;62885;51.374;6.170;2023-06-14T07:27:56;7.43;;;2.65;;
74371;SDS011;62885;51.374;6.170;2023-06-14T07:30:21;9.23;;;2.90;;
74371;SDS011;62885;51.374;6.170;2023-06-14T07:32:50;7.47;;;2.85;;
74371;SDS011;62885;51.374;6.170;2023-06-14T07:35:17;7.68;;;3.00;;
74371;SDS011;62885;51.374;6.170;2023-06-14T07:37:43;7.78;;;2.40;;
74371;SDS011;62885;51.374;6.170;2023-06-14T07:40:09;7.72;;;2.75;;
74371;SDS011;62885;51.374;6.170;2023-06-14T07:42:37;6.03;;;2.70;;
74371;SDS011;62885;51.374;6.170;2023-06-14T07:45:03;5.82;;;3.08;;
74371;SDS011;62885;51.374;6.170;2023-06-14T07:47:29;7.70;;;2.45;;
74371;SDS011;62885;51.374;6.170;2023-06-14T07:49:55;7.40;;;2.22;;
74371;SDS011;62885;51.374;6.170;2023-06-14T07:52:21;6.72;;;1.98;;
74371;SDS011;62885;51.374;6.170;2023-06-14T07:54:47;4.50;;;2.28;;
74371;SDS011;62885;51.374;6.170;2023-06-14T07:57:12;4.38;;;1.80;;
74371;SDS011;62885;51.374;6.170;2023-06-14T07:59:38;4.70;;;1.77;;
74371;SDS011;62885;51.374;6.170;2023-06-14T08:02:04;3.28;;;1.63;;
74371;SDS011;62885;51.374;6.170;2023-06-14T08:04:31;3.65;;;1.60;;
74371;SDS011;62885;51.374;6.170;2023-06-14T08:06:57;6.72;;;2.30;;
74371;SDS011;62885;51.374;6.170;2023-06-14T08:09:22;7.13;;;2.28;;
74371;SDS011;62885;51.374;6.170;2023-06-14T08:11:49;4.13;;;1.67;;
74371;SDS011;62885;51.374;6.170;2023-06-14T08:14:15;3.70;;;2.08;;
74371;SDS011;62885;51.374;6.170;2023-06-14T08:16:40;5.57;;;1.70;;
74371;SDS011;62885;51.374;6.170;2023-06-14T08:19:06;3.03;;;1.52;;
74371;SDS011;62885;51.374;6.170;2023-06-14T08:21:31;4.28;;;1.67;;
74371;SDS011;62885;51.374;6.170;2023-06-14T08:23:58;3.53;;;1.77;;
74371;SDS011;62885;51.374;6.170;2023-06-14T08:26:24;2.65;;;1.48;;
74371;SDS011;62885;51.374;6.170;2023-06-14T08:28:53;6.03;;;1.40;;
74371;SDS011;62885;51.374;6.170;2023-06-14T08:31:19;2.80;;;1.20;;
74371;SDS011;62885;51.374;6.170;2023-06-14T08:33:45;3.05;;;1.38;;
74371;SDS011;62885;51.374;6.170;2023-06-14T08:36:10;4.13;;;1.63;;
74371;SDS011;62885;51.374;6.170;2023-06-14T08:38:37;3.20;;;1.30;;
74371;SDS011;62885;51.374;6.170;2023-06-14T08:41:02;6.50;;;1.60;;
74371;SDS011;62885;51.374;6.170;2023-06-14T08:43:31;3.90;;;1.50;;
74371;SDS011;62885;51.374;6.170;2023-06-14T08:46:00;2.28;;;1.30;;
74371;SDS011;62885;51.374;6.170;2023-06-14T08:48:29;4.07;;;1.30;;
74371;SDS011;62885;51.374;6.170;2023-06-14T08:50:57;3.25;;;1.38;;
74371;SDS011;62885;51.374;6.170;2023-06-14T08:53:32;3.88;;;1.42;;
74371;SDS011;62885;51.374;6.170;2023-06-14T08:56:02;7.25;;;1.60;;
74371;SDS011;62885;51.374;6.170;2023-06-14T08:58:30;3.15;;;1.63;;
74371;SDS011;62885;51.374;6.170;2023-06-14T09:00:57;4.32;;;1.30;;
74371;SDS011;62885;51.374;6.170;2023-06-14T09:03:23;5.05;;;1.50;;
74371;SDS011;62885;51.374;6.170;2023-06-14T09:05:56;7.13;;;1.77;;
74371;SDS011;62885;51.374;6.170;2023-06-14T09:08:23;3.30;;;1.50;;
74371;SDS011;62885;51.374;6.170;2023-06-14T09:10:50;4.07;;;1.50;;
74371;SDS011;62885;51.374;6.170;2023-06-14T09:13:16;3.25;;;1.60;;
74371;SDS011;62885;51.374;6.170;2023-06-14T09:15:43;4.30;;;1.17;;
74371;SDS011;62885;51.374;6.170;2023-06-14T09:18:08;3.47;;;1.70;;
74371;SDS011;62885;51.374;6.170;2023-06-14T09:20:34;5.40;;;1.70;;
74371;SDS011;62885;51.374;6.170;2023-06-14T09:23:00;4.03;;;1.80;;
74371;SDS011;62885;51.374;6.170;2023-06-14T09:25:26;5.40;;;1.90;;
74371;SDS011;62885;51.374;6.170;2023-06-14T09:27:52;3.28;;;1.70;;
74371;SDS011;62885;51.374;6.170;2023-06-14T09:30:19;3.65;;;1.50;;
74371;SDS011;62885;51.374;6.170;2023-06-14T09:32:45;5.15;;;1.80;;
74371;SDS011;62885;51.374;6.170;2023-06-14T09:35:11;3.80;;;1.48;;
74371;SDS011;62885;51.374;6.170;2023-06-14T09:37:36;4.30;;;1.65;;
74371;SDS011;62885;51.374;6.170;2023-06-14T09:40:04;7.38;;;1.85;;
74371;SDS011;62885;51.374;6.170;2023-06-14T09:42:31;11.70;;;2.85;;
74371;SDS011;62885;51.374;6.170;2023-06-14T09:45:00;3.13;;;1.67;;
74371;SDS011;62885;51.374;6.170;2023-06-14T09:47:27;5.20;;;1.70;;
74371;SDS011;62885;51.374;6.170;2023-06-14T09:49:52;6.15;;;1.75;;
74371;SDS011;62885;51.374;6.170;2023-06-14T09:52:21;2.75;;;1.48;;
74371;SDS011;62885;51.374;6.170;2023-06-14T09:54:48;3.45;;;1.55;;
74371;SDS011;62885;51.374;6.170;2023-06-14T09:57:17;4.38;;;1.30;;
74371;SDS011;62885;51.374;6.170;2023-06-14T09:59:46;4.35;;;1.55;;
74371;SDS011;62885;51.374;6.170;2023-06-14T10:04:53;3.58;;;1.67;;
74371;SDS011;62885;51.374;6.170;2023-06-14T10:07:25;3.47;;;1.70;;
74371;SDS011;62885;51.374;6.170;2023-06-14T10:09:55;4.07;;;1.63;;
74371;SDS011;62885;51.374;6.170;2023-06-14T10:12:20;3.42;;;1.60;;
74371;SDS011;62885;51.374;6.170;2023-06-14T10:14:49;6.68;;;1.50;;
74371;SDS011;62885;51.374;6.170;2023-06-14T10:17:33;4.60;;;1.52;;
74371;SDS011;62885;51.374;6.170;2023-06-14T10:22:36;2.67;;;1.60;;
74371;SDS011;62885;51.374;6.170;2023-06-14T10:25:10;4.05;;;1.40;;
74371;SDS011;62885;51.374;6.170;2023-06-14T10:27:38;4.00;;;1.55;;
74371;SDS011;62885;51.374;6.170;2023-06-14T10:30:04;5.28;;;1.77;;
74371;SDS011;62885;51.374;6.170;2023-06-14T10:32:32;3.30;;;1.50;;
74371;SDS011;62885;51.374;6.170;2023-06-14T10:35:05;3.42;;;1.80;;
74371;SDS011;62885;51.374;6.170;2023-06-14T10:37:31;4.63;;;1.75;;
74371;SDS011;62885;51.374;6.170;2023-06-14T10:39:57;5.32;;;1.42;;
74371;SDS011;62885;51.374;6.170;2023-06-14T10:42:23;7.30;;;1.83;;
74371;SDS011;62885;51.374;6.170;2023-06-14T10:44:53;3.63;;;1.70;;
74371;SDS011;62885;51.374;6.170;2023-06-14T10:47:31;3.95;;;1.90;;
74371;SDS011;62885;51.374;6.170;2023-06-14T10:50:05;5.35;;;1.90;;
74371;SDS011;62885;51.374;6.170;2023-06-14T10:52:37;4.90;;;2.08;;
74371;SDS011;62885;51.374;6.170;2023-06-14T10:55:05;3.13;;;1.88;;
74371;SDS011;62885;51.374;6.170;2023-06-14T10:57:39;4.03;;;1.90;;
74371;SDS011;62885;51.374;6.170;2023-06-14T11:00:05;4.95;;;1.60;;
74371;SDS011;62885;51.374;6.170;2023-06-14T11:05:50;3.50;;;1.55;;
74371;SDS011;62885;51.374;6.170;2023-06-14T11:11:06;2.70;;;1.20;;
74371;SDS011;62885;51.374;6.170;2023-06-14T11:13:32;7.15;;;1.70;;
74371;SDS011;62885;51.374;6.170;2023-06-14T11:15:58;3.28;;;1.40;;
74371;SDS011;62885;51.374;6.170;2023-06-14T11:18:23;2.90;;;1.40;;
74371;SDS011;62885;51.374;6.170;2023-06-14T11:20:50;5.38;;;1.75;;
74371;SDS011;62885;51.374;6.170;2023-06-14T11:23:15;3.30;;;1.30;;
74371;SDS011;62885;51.374;6.170;2023-06-14T11:25:41;6.18;;;2.20;;
74371;SDS011;62885;51.374;6.170;2023-06-14T11:28:07;6.25;;;1.42;;
74371;SDS011;62885;51.374;6.170;2023-06-14T11:30:32;2.92;;;1.40;;
74371;SDS011;62885;51.374;6.170;2023-06-14T11:32:58;3.78;;;1.58;;
74371;SDS011;62885;51.374;6.170;2023-06-14T11:35:24;2.30;;;1.35;;
74371;SDS011;62885;51.374;6.170;2023-06-14T11:37:54;3.40;;;1.50;;
74371;SDS011;62885;51.374;6.170;2023-06-14T11:40:25;4.55;;;1.40;;
74371;SDS011;62885;51.374;6.170;2023-06-14T11:42:59;4.05;;;1.48;;
74371;SDS011;62885;51.374;6.170;2023-06-14T11:45:26;3.22;;;1.20;;
74371;SDS011;62885;51.374;6.170;2023-06-14T11:47:53;4.72;;;1.20;;
74371;SDS011;62885;51.374;6.170;2023-06-14T11:50:21;4.25;;;1.45;;
74371;SDS011;62885;51.374;6.170;2023-06-14T11:52:51;3.67;;;1.17;;
74371;SDS011;62885;51.374;6.170;2023-06-14T11:55:19;1.90;;;1.25;;
74371;SDS011;62885;51.374;6.170;2023-06-14T11:57:46;3.45;;;1.00;;
74371;SDS011;62885;51.374;6.170;2023-06-14T12:00:12;2.47;;;1.30;;
74371;SDS011;62885;51.374;6.170;2023-06-14T12:02:38;3.33;;;1.08;;
74371;SDS011;62885;51.374;6.170;2023-06-14T12:05:05;7.72;;;1.27;;
74371;SDS011;62885;51.374;6.170;2023-06-14T12:07:37;2.80;;;1.10;;
74371;SDS011;62885;51.374;6.170;2023-06-14T12:10:05;6.72;;;1.70;;
74371;SDS011;62885;51.374;6.170;2023-06-14T12:12:34;3.22;;;1.13;;
74371;SDS011;62885;51.374;6.170;2023-06-14T12:15:06;4.15;;;1.13;;
74371;SDS011;62885;51.374;6.170;2023-06-14T12:17:33;3.45;;;1.23;;
74371;SDS011;62885;51.374;6.170;2023-06-14T12:20:05;7.15;;;1.25;;
74371;SDS011;62885;51.374;6.170;2023-06-14T12:22:36;2.65;;;0.98;;
74371;SDS011;62885;51.374;6.170;2023-06-14T12:25:03;3.58;;;1.10;;
74371;SDS011;62885;51.374;6.170;2023-06-14T12:27:29;1.45;;;0.80;;
74371;SDS011;62885;51.374;6.170;2023-06-14T12:29:58;2.30;;;1.20;;
74371;SDS011;62885;51.374;6.170;2023-06-14T12:32:24;3.35;;;1.35;;
74371;SDS011;62885;51.374;6.170;2023-06-14T12:34:50;3.80;;;1.23;;
74371;SDS011;62885;51.374;6.170;2023-06-14T12:37:15;1.93;;;1.07;;
74371;SDS011;62885;51.374;6.170;2023-06-14T12:39:41;1.50;;;1.10;;
74371;SDS011;62885;51.374;6.170;2023-06-14T12:42:06;3.78;;;1.17;;
74371;SDS011;62885;51.374;6.170;2023-06-14T12:44:32;3.28;;;1.20;;
74371;SDS011;62885;51.374;6.170;2023-06-14T12:47:00;1.92;;;0.98;;
74371;SDS011;62885;51.374;6.170;2023-06-14T12:49:26;1.52;;;1.30;;
74371;SDS011;62885;51.374;6.170;2023-06-14T12:51:51;5.10;;;1.30;;
74371;SDS011;62885;51.374;6.170;2023-06-14T12:54:16;2.05;;;1.20;;
74371;SDS011;62885;51.374;6.170;2023-06-14T12:56:42;2.05;;;1.20;;
74371;SDS011;62885;51.374;6.170;2023-06-14T12:59:09;2.70;;;1.10;;
74371;SDS011;62885;51.374;6.170;2023-06-14T13:01:37;3.38;;;1.38;;
74371;SDS011;62885;51.374;6.170;2023-06-14T13:04:03;4.65;;;1.20;;
74371;SDS011;62885;51.374;6.170;2023-06-14T13:06:29;4.47;;;1.02;;
74371;SDS011;62885;51.374;6.170;2023-06-14T13:08:56;5.20;;;1.20;;
74371;SDS011;62885;51.374;6.170;2023-06-14T13:11:24;2.08;;;1.23;;
74371;SDS011;62885;51.374;6.170;2023-06-14T13:13:49;3.55;;;1.10;;
74371;SDS011;62885;51.374;6.170;2023-06-14T13:16:14;3.90;;;1.08;;
74371;SDS011;62885;51.374;6.170;2023-06-14T13:18:40;3.05;;;1.10;;
74371;SDS011;62885;51.374;6.170;2023-06-14T13:21:05;5.68;;;1.60;;
74371;SDS011;62885;51.374;6.170;2023-06-14T13:23:30;4.93;;;1.20;;
74371;SDS011;62885;51.374;6.170;2023-06-14T13:25:56;2.10;;;1.30;;
74371;SDS011;62885;51.374;6.170;2023-06-14T13:28:21;2.13;;;1.00;;
74371;SDS011;62885;51.374;6.170;2023-06-14T13:30:47;3.42;;;1.30;;
74371;SDS011;62885;51.374;6.170;2023-06-14T13:33:13;4.53;;;1.23;;
74371;SDS011;62885;51.374;6.170;2023-06-14T13:35:39;4.22;;;1.38;;
74371;SDS011;62885;51.374;6.170;2023-06-14T13:38:05;2.75;;;1.20;;
74371;SDS011;62885;51.374;6.170;2023-06-14T13:40:30;5.55;;;1.50;;
74371;SDS011;62885;51.374;6.170;2023-06-14T13:42:55;2.60;;;1.43;;
74371;SDS011;62885;51.374;6.170;2023-06-14T13:45:21;5.85;;;1.63;;
74371;SDS011;62885;51.374;6.170;2023-06-14T13:47:47;9.98;;;2.35;;
74371;SDS011;62885;51.374;6.170;2023-06-14T13:50:13;4.85;;;1.58;;
74371;SDS011;62885;51.374;6.170;2023-06-14T13:52:39;3.17;;;1.45;;
74371;SDS011;62885;51.374;6.170;2023-06-14T13:55:05;1.77;;;1.52;;
74371;SDS011;62885;51.374;6.170;2023-06-14T13:57:30;4.03;;;1.38;;
74371;SDS011;62885;51.374;6.170;2023-06-14T13:59:56;2.78;;;1.42;;
74371;SDS011;62885;51.374;6.170;2023-06-14T14:02:26;3.25;;;1.48;;
74371;SDS011;62885;51.374;6.170;2023-06-14T14:04:52;3.85;;;1.60;;
74371;SDS011;62885;51.374;6.170;2023-06-14T14:07:18;5.80;;;1.88;;
74371;SDS011;62885;51.374;6.170;2023-06-14T14:09:45;2.60;;;1.50;;
74371;SDS011;62885;51.374;6.170;2023-06-14T14:12:11;2.97;;;1.13;;
74371;SDS011;62885;51.374;6.170;2023-06-14T14:14:36;3.85;;;1.35;;
74371;SDS011;62885;51.374;6.170;2023-06-14T14:17:02;2.63;;;1.50;;
74371;SDS011;62885;51.374;6.170;2023-06-14T14:19:27;4.20;;;1.45;;
74371;SDS011;62885;51.374;6.170;2023-06-14T14:21:53;2.20;;;1.48;;
74371;SDS011;62885;51.374;6.170;2023-06-14T14:24:21;3.63;;;1.40;;
74371;SDS011;62885;51.374;6.170;2023-06-14T14:26:46;4.18;;;1.58;;
74371;SDS011;62885;51.374;6.170;2023-06-14T14:29:15;6.70;;;1.60;;
74371;SDS011;62885;51.374;6.170;2023-06-14T14:31:41;2.38;;;1.50;;
74371;SDS011;62885;51.374;6.170;2023-06-14T14:34:07;4.72;;;1.90;;
74371;SDS011;62885;51.374;6.170;2023-06-14T14:36:32;3.38;;;1.73;;
74371;SDS011;62885;51.374;6.170;2023-06-14T14:39:02;2.92;;;1.83;;
74371;SDS011;62885;51.374;6.170;2023-06-14T14:41:32;5.38;;;2.00;;
74371;SDS011;62885;51.374;6.170;2023-06-14T14:43:57;3.38;;;1.70;;
74371;SDS011;62885;51.374;6.170;2023-06-14T14:46:23;3.03;;;1.80;;
74371;SDS011;62885;51.374;6.170;2023-06-14T14:48:48;2.78;;;1.60;;
74371;SDS011;62885;51.374;6.170;2023-06-14T14:51:14;4.95;;;2.00;;
74371;SDS011;62885;51.374;6.170;2023-06-14T14:53:39;6.57;;;2.00;;